sensor_id;sensor_type;location;lat;lon;timestamp;pressure;altitude;pressure_sealevel;temperature;humidity
15817;BME280;8009;50.070;8.232;2022-10-26T00:01:23;100003.66;;;12.13;87.40
15817;BME280;8009;50.070;8.232;2022-10-26T00:03:54;99999.44;;;12.09;87.43
15817;BME280;8009;50.070;8.232;2022-10-26T00:06:24;99997.88;;;12.07;87.92
15817;BME280;8009;50.070;8.232;2022-10-26T00:08:54;99985.06;;;12.09;88.18
15817;BME280;8009;50.070;8.232;2022-10-26T00:11:25;99997.72;;;12.19;87.60
15817;BME280;8009;50.070;8.232;2022-10-26T00:13:54;99995.00;;;12.19;87.64
15817;BME280;8009;50.070;8.232;2022-10-26T00:16:24;99996.22;;;12.27;87.18
15817;BME280;8009;50.070;8.232;2022-10-26T00:18:53;99998.34;;;12.23;87.41
15817;BME280;8009;50.070;8.232;2022-10-26T00:21:22;99992.41;;;12.29;87.32
15817;BME280;8009;50.070;8.232;2022-10-26T00:23:51;99982.44;;;12.30;87.66
15817;BME280;8009;50.070;8.232;2022-10-26T00:26:19;99983.94;;;12.23;88.11
15817;BME280;8009;50.070;8.232;2022-10-26T00:28:51;99976.66;;;12.23;87.93
15817;BME280;8009;50.070;8.232;2022-10-26T00:31:21;99981.69;;;12.28;88.29
15817;BME280;8009;50.070;8.232;2022-10-26T00:33:51;99984.31;;;12.29;88.23
15817;BME280;8009;50.070;8.232;2022-10-26T00:36:20;99990.44;;;12.31;88.18
15817;BME280;8009;50.070;8.232;2022-10-26T00:38:49;99988.97;;;12.27;88.25
15817;BME280;8009;50.070;8.232;2022-10-26T00:41:21;99997.44;;;12.34;88.50
15817;BME280;8009;50.070;8.232;2022-10-26T00:43:53;100000.03;;;12.24;88.51
15817;BME280;8009;50.070;8.232;2022-10-26T00:46:24;99998.44;;;12.33;88.52
15817;BME280;8009;50.070;8.232;2022-10-26T00:48:55;100000.19;;;12.23;88.64
15817;BME280;8009;50.070;8.232;2022-10-26T00:51:28;100004.75;;;12.22;88.55
15817;BME280;8009;50.070;8.232;2022-10-26T00:53:59;100001.50;;;12.28;88.24
15817;BME280;8009;50.070;8.232;2022-10-26T00:56:30;100006.44;;;12.34;88.10
15817;BME280;8009;50.070;8.232;2022-10-26T00:59:05;100014.31;;;12.37;88.28
15817;BME280;8009;50.070;8.232;2022-10-26T01:01:37;100010.59;;;12.38;88.67
15817;BME280;8009;50.070;8.232;2022-10-26T01:04:07;100017.63;;;12.41;88.69
15817;BME280;8009;50.070;8.232;2022-10-26T01:06:36;100009.34;;;12.42;88.55
15817;BME280;8009;50.070;8.232;2022-10-26T01:09:05;100005.66;;;12.43;88.29
15817;BME280;8009;50.070;8.232;2022-10-26T01:11:33;100003.09;;;12.31;88.43
15817;BME280;8009;50.070;8.232;2022-10-26T01:14:08;99988.34;;;12.24;88.66
15817;BME280;8009;50.070;8.232;2022-10-26T01:16:48;99983.09;;;12.22;88.73
15817;BME280;8009;50.070;8.232;2022-10-26T01:22:35;99984.13;;;12.42;88.31
15817;BME280;8009;50.070;8.232;2022-10-26T01:25:12;99976.78;;;12.33;88.33
15817;BME280;8009;50.070;8.232;2022-10-26T01:27:44;99966.31;;;12.28;88.06
15817;BME280;8009;50.070;8.232;2022-10-26T01:30:26;99955.97;;;12.33;88.49
15817;BME280;8009;50.070;8.232;2022-10-26T01:33:19;99958.53;;;12.35;88.53
15817;BME280;8009;50.070;8.232;2022-10-26T01:35:54;99966.88;;;12.43;88.19
15817;BME280;8009;50.070;8.232;2022-10-26T01:38:30;99976.31;;;12.60;87.72
15817;BME280;8009;50.070;8.232;2022-10-26T01:41:07;99989.22;;;12.67;87.55
15817;BME280;8009;50.070;8.232;2022-10-26T01:43:41;99986.28;;;12.59;87.65
15817;BME280;8009;50.070;8.232;2022-10-26T01:46:14;99977.81;;;12.53;88.37
15817;BME280;8009;50.070;8.232;2022-10-26T01:48:44;99972.16;;;12.56;88.49
15817;BME280;8009;50.070;8.232;2022-10-26T01:51:15;99984.97;;;12.42;88.64
15817;BME280;8009;50.070;8.232;2022-10-26T01:53:44;99971.59;;;12.41;88.84
15817;BME280;8009;50.070;8.232;2022-10-26T01:56:18;99968.97;;;12.39;89.04
15817;BME280;8009;50.070;8.232;2022-10-26T01:59:00;99973.09;;;12.23;90.07
15817;BME280;8009;50.070;8.232;2022-10-26T02:01:48;99967.88;;;12.42;89.64
15817;BME280;8009;50.070;8.232;2022-10-26T02:04:30;99973.03;;;12.45;89.63
15817;BME280;8009;50.070;8.232;2022-10-26T02:07:03;99978.59;;;12.32;89.59
15817;BME280;8009;50.070;8.232;2022-10-26T02:09:38;99975.31;;;12.29;89.89
15817;BME280;8009;50.070;8.232;2022-10-26T02:12:17;99970.41;;;12.23;90.19
15817;BME280;8009;50.070;8.232;2022-10-26T02:14:49;99969.31;;;12.14;90.67
15817;BME280;8009;50.070;8.232;2022-10-26T02:17:27;99966.34;;;12.17;90.50
15817;BME280;8009;50.070;8.232;2022-10-26T02:19:57;99952.59;;;12.09;91.13
15817;BME280;8009;50.070;8.232;2022-10-26T02:22:30;99946.31;;;12.08;91.59
15817;BME280;8009;50.070;8.232;2022-10-26T02:25:04;99942.63;;;12.09;91.84
15817;BME280;8009;50.070;8.232;2022-10-26T02:27:37;99952.81;;;12.17;92.33
15817;BME280;8009;50.070;8.232;2022-10-26T02:30:10;99948.88;;;12.21;92.49
15817;BME280;8009;50.070;8.232;2022-10-26T02:32:45;99947.28;;;12.18;92.64
15817;BME280;8009;50.070;8.232;2022-10-26T02:35:17;99940.16;;;12.17;92.62
15817;BME280;8009;50.070;8.232;2022-10-26T02:37:48;99942.50;;;12.11;92.41
15817;BME280;8009;50.070;8.232;2022-10-26T02:40:22;99940.63;;;12.23;92.35
15817;BME280;8009;50.070;8.232;2022-10-26T02:42:53;99943.72;;;12.18;92.71
15817;BME280;8009;50.070;8.232;2022-10-26T02:45:33;99934.38;;;12.11;92.96
15817;BME280;8009;50.070;8.232;2022-10-26T02:48:06;99943.84;;;12.16;93.03
15817;BME280;8009;50.070;8.232;2022-10-26T02:50:42;99929.94;;;12.21;93.11
15817;BME280;8009;50.070;8.232;2022-10-26T02:53:17;99929.19;;;12.19;93.18
15817;BME280;8009;50.070;8.232;2022-10-26T02:55:50;99935.94;;;12.25;92.78
15817;BME280;8009;50.070;8.232;2022-10-26T02:58:22;99933.97;;;12.27;93.05
15817;BME280;8009;50.070;8.232;2022-10-26T03:00:53;99926.44;;;12.30;92.56
15817;BME280;8009;50.070;8.232;2022-10-26T03:03:24;99937.91;;;12.23;93.38
15817;BME280;8009;50.070;8.232;2022-10-26T03:05:52;99939.16;;;12.18;93.76
15817;BME280;8009;50.070;8.232;2022-10-26T03:08:22;99938.06;;;12.21;93.65
15817;BME280;8009;50.070;8.232;2022-10-26T03:10:50;99936.47;;;12.18;94.04
15817;BME280;8009;50.070;8.232;2022-10-26T03:13:19;99939.16;;;12.18;94.75
15817;BME280;8009;50.070;8.232;2022-10-26T03:15:47;99949.25;;;12.16;94.07
15817;BME280;8009;50.070;8.232;2022-10-26T03:18:15;99948.13;;;12.19;94.41
15817;BME280;8009;50.070;8.232;2022-10-26T03:20:46;99940.03;;;12.19;93.99
15817;BME280;8009;50.070;8.232;2022-10-26T03:23:14;99946.66;;;12.26;94.16
15817;BME280;8009;50.070;8.232;2022-10-26T03:25:43;99946.00;;;12.34;93.78
15817;BME280;8009;50.070;8.232;2022-10-26T03:28:11;99945.59;;;12.38;93.46
15817;BME280;8009;50.070;8.232;2022-10-26T03:30:39;99949.78;;;12.42;93.74
15817;BME280;8009;50.070;8.232;2022-10-26T03:33:08;99956.63;;;12.26;94.06
15817;BME280;8009;50.070;8.232;2022-10-26T03:35:36;99954.38;;;12.31;94.22
15817;BME280;8009;50.070;8.232;2022-10-26T03:38:07;99949.09;;;12.29;94.15
15817;BME280;8009;50.070;8.232;2022-10-26T03:40:35;99946.72;;;12.36;94.21
15817;BME280;8009;50.070;8.232;2022-10-26T03:43:03;99951.81;;;12.29;94.10
15817;BME280;8009;50.070;8.232;2022-10-26T03:45:32;99960.66;;;12.31;94.42
15817;BME280;8009;50.070;8.232;2022-10-26T03:48:00;99950.03;;;12.39;94.31
15817;BME280;8009;50.070;8.232;2022-10-26T03:50:28;99934.06;;;12.36;94.37
15817;BME280;8009;50.070;8.232;2022-10-26T03:52:57;99935.44;;;12.31;94.86
15817;BME280;8009;50.070;8.232;2022-10-26T03:55:27;99935.34;;;12.21;94.59
15817;BME280;8009;50.070;8.232;2022-10-26T03:57:56;99936.91;;;12.24;94.53
15817;BME280;8009;50.070;8.232;2022-10-26T04:00:24;99930.03;;;12.19;94.36
15817;BME280;8009;50.070;8.232;2022-10-26T04:02:54;99941.72;;;12.20;94.61
15817;BME280;8009;50.070;8.232;2022-10-26T04:05:24;99946.44;;;12.18;94.79
15817;BME280;8009;50.070;8.232;2022-10-26T04:07:53;99950.25;;;12.15;95.02
15817;BME280;8009;50.070;8.232;2022-10-26T04:10:22;99959.31;;;12.26;94.92
15817;BME280;8009;50.070;8.232;2022-10-26T04:12:54;99950.06;;;12.28;94.49
15817;BME280;8009;50.070;8.232;2022-10-26T04:15:23;99955.88;;;12.24;94.53
15817;BME280;8009;50.070;8.232;2022-10-26T04:17:55;99947.28;;;12.18;94.53
15817;BME280;8009;50.070;8.232;2022-10-26T04:20:24;99949.38;;;12.15;94.20
15817;BME280;8009;50.070;8.232;2022-10-26T04:22:56;99950.63;;;12.11;93.88
15817;BME280;8009;50.070;8.232;2022-10-26T04:25:25;99938.69;;;12.13;94.43
15817;BME280;8009;50.070;8.232;2022-10-26T04:27:56;99928.97;;;12.11;94.13
15817;BME280;8009;50.070;8.232;2022-10-26T04:30:24;99945.44;;;12.19;93.97
15817;BME280;8009;50.070;8.232;2022-10-26T04:32:53;99932.25;;;12.26;94.16
15817;BME280;8009;50.070;8.232;2022-10-26T04:35:21;99937.91;;;12.23;94.50
15817;BME280;8009;50.070;8.232;2022-10-26T04:37:49;99929.34;;;12.17;94.38
15817;BME280;8009;50.070;8.232;2022-10-26T04:40:18;99935.22;;;12.23;94.45
15817;BME280;8009;50.070;8.232;2022-10-26T04:42:46;99924.38;;;12.23;94.46
15817;BME280;8009;50.070;8.232;2022-10-26T04:45:17;99922.13;;;12.28;94.74
15817;BME280;8009;50.070;8.232;2022-10-26T04:47:46;99918.47;;;12.29;94.70
15817;BME280;8009;50.070;8.232;2022-10-26T04:50:14;99919.78;;;12.34;94.92
15817;BME280;8009;50.070;8.232;2022-10-26T04:52:49;99911.09;;;12.19;94.89
15817;BME280;8009;50.070;8.232;2022-10-26T04:55:17;99917.31;;;12.31;95.30
15817;BME280;8009;50.070;8.232;2022-10-26T04:57:45;99913.63;;;12.32;94.58
15817;BME280;8009;50.070;8.232;2022-10-26T05:00:14;99912.31;;;12.27;94.83
15817;BME280;8009;50.070;8.232;2022-10-26T05:02:45;99919.38;;;12.39;94.54
15817;BME280;8009;50.070;8.232;2022-10-26T05:05:13;99928.03;;;12.33;94.46
15817;BME280;8009;50.070;8.232;2022-10-26T05:07:42;99930.00;;;12.31;95.16
15817;BME280;8009;50.070;8.232;2022-10-26T05:10:10;99926.69;;;12.27;94.83
15817;BME280;8009;50.070;8.232;2022-10-26T05:12:38;99925.44;;;12.31;94.55
15817;BME280;8009;50.070;8.232;2022-10-26T05:15:08;99920.19;;;12.30;95.16
15817;BME280;8009;50.070;8.232;2022-10-26T05:17:39;99929.50;;;12.37;94.93
15817;BME280;8009;50.070;8.232;2022-10-26T05:20:10;99935.63;;;12.39;95.01
15817;BME280;8009;50.070;8.232;2022-10-26T05:22:39;99938.94;;;12.42;94.96
15817;BME280;8009;50.070;8.232;2022-10-26T05:25:08;99934.19;;;12.35;95.23
15817;BME280;8009;50.070;8.232;2022-10-26T05:27:36;99933.66;;;12.41;95.04
15817;BME280;8009;50.070;8.232;2022-10-26T05:30:05;99941.16;;;12.49;94.57
15817;BME280;8009;50.070;8.232;2022-10-26T05:32:34;99931.69;;;12.43;94.60
15817;BME280;8009;50.070;8.232;2022-10-26T05:35:03;99940.00;;;12.51;94.58
15817;BME280;8009;50.070;8.232;2022-10-26T05:37:33;99934.63;;;12.40;95.10
15817;BME280;8009;50.070;8.232;2022-10-26T05:40:02;99931.06;;;12.39;95.13
15817;BME280;8009;50.070;8.232;2022-10-26T05:42:31;99935.25;;;12.43;95.28
15817;BME280;8009;50.070;8.232;2022-10-26T05:44:59;99929.97;;;12.42;95.61
15817;BME280;8009;50.070;8.232;2022-10-26T05:47:27;99940.81;;;12.42;95.25
15817;BME280;8009;50.070;8.232;2022-10-26T05:49:56;99949.06;;;12.40;95.44
15817;BME280;8009;50.070;8.232;2022-10-26T05:52:24;99952.09;;;12.47;94.99
15817;BME280;8009;50.070;8.232;2022-10-26T05:54:55;99950.38;;;12.46;94.89
15817;BME280;8009;50.070;8.232;2022-10-26T05:57:24;99949.53;;;12.46;95.02
15817;BME280;8009;50.070;8.232;2022-10-26T05:59:53;99950.88;;;12.40;95.45
15817;BME280;8009;50.070;8.232;2022-10-26T06:02:28;99954.09;;;12.45;95.45
15817;BME280;8009;50.070;8.232;2022-10-26T06:05:02;99955.78;;;12.46;95.01
15817;BME280;8009;50.070;8.232;2022-10-26T06:07:32;99962.84;;;12.37;95.59
15817;BME280;8009;50.070;8.232;2022-10-26T06:10:04;99954.78;;;12.47;95.00
15817;BME280;8009;50.070;8.232;2022-10-26T06:12:33;99972.00;;;12.57;94.33
15817;BME280;8009;50.070;8.232;2022-10-26T06:15:02;99966.72;;;12.56;94.87
15817;BME280;8009;50.070;8.232;2022-10-26T06:17:37;99969.53;;;12.54;94.89
15817;BME280;8009;50.070;8.232;2022-10-26T06:20:28;99985.19;;;12.51;95.13
15817;BME280;8009;50.070;8.232;2022-10-26T06:23:09;99988.47;;;12.65;93.87
15817;BME280;8009;50.070;8.232;2022-10-26T06:25:49;99999.34;;;12.54;95.12
15817;BME280;8009;50.070;8.232;2022-10-26T06:28:26;100003.59;;;12.68;94.61
15817;BME280;8009;50.070;8.232;2022-10-26T06:30:57;100002.16;;;12.64;94.25
15817;BME280;8009;50.070;8.232;2022-10-26T06:33:26;100010.72;;;12.69;94.14
15817;BME280;8009;50.070;8.232;2022-10-26T06:36:03;100014.56;;;12.66;93.95
15817;BME280;8009;50.070;8.232;2022-10-26T06:38:37;100023.31;;;12.59;94.64
15817;BME280;8009;50.070;8.232;2022-10-26T06:41:12;100029.72;;;12.58;94.93
15817;BME280;8009;50.070;8.232;2022-10-26T06:43:44;100028.38;;;12.63;94.95
15817;BME280;8009;50.070;8.232;2022-10-26T06:46:22;100016.09;;;12.59;94.73
15817;BME280;8009;50.070;8.232;2022-10-26T06:48:57;100026.00;;;12.70;94.13
15817;BME280;8009;50.070;8.232;2022-10-26T06:51:28;100018.50;;;12.95;93.07
15817;BME280;8009;50.070;8.232;2022-10-26T06:54:03;100024.53;;;12.98;92.63
15817;BME280;8009;50.070;8.232;2022-10-26T06:56:37;100025.91;;;12.92;92.65
15817;BME280;8009;50.070;8.232;2022-10-26T06:59:08;100029.91;;;12.77;93.16
15817;BME280;8009;50.070;8.232;2022-10-26T07:01:41;100021.03;;;12.86;93.17
15817;BME280;8009;50.070;8.232;2022-10-26T07:04:09;100028.91;;;13.31;91.31
15817;BME280;8009;50.070;8.232;2022-10-26T07:06:37;100021.94;;;13.29;91.62
15817;BME280;8009;50.070;8.232;2022-10-26T07:09:06;100032.13;;;13.98;86.77
15817;BME280;8009;50.070;8.232;2022-10-26T07:11:37;100043.97;;;14.27;84.94
15817;BME280;8009;50.070;8.232;2022-10-26T07:14:08;100043.25;;;14.35;84.88
15817;BME280;8009;50.070;8.232;2022-10-26T07:16:36;100038.44;;;13.68;88.73
15817;BME280;8009;50.070;8.232;2022-10-26T07:19:05;100042.84;;;13.69;89.07
15817;BME280;8009;50.070;8.232;2022-10-26T07:21:33;100037.06;;;13.52;89.49
15817;BME280;8009;50.070;8.232;2022-10-26T07:24:02;100047.06;;;13.52;89.81
15817;BME280;8009;50.070;8.232;2022-10-26T07:26:30;100053.94;;;14.27;86.50
15817;BME280;8009;50.070;8.232;2022-10-26T07:29:01;100048.94;;;13.61;89.11
15817;BME280;8009;50.070;8.232;2022-10-26T07:31:30;100060.78;;;13.18;91.36
15817;BME280;8009;50.070;8.232;2022-10-26T07:33:58;100063.09;;;13.23;91.53
15817;BME280;8009;50.070;8.232;2022-10-26T07:36:28;100063.09;;;13.23;91.59
15817;BME280;8009;50.070;8.232;2022-10-26T07:38:56;100063.47;;;13.29;91.46
15817;BME280;8009;50.070;8.232;2022-10-26T07:41:24;100071.44;;;13.31;91.77
15817;BME280;8009;50.070;8.232;2022-10-26T07:43:53;100078.00;;;13.70;89.40
15817;BME280;8009;50.070;8.232;2022-10-26T07:46:24;100077.59;;;14.05;88.04
15817;BME280;8009;50.070;8.232;2022-10-26T07:48:53;100074.03;;;13.74;90.21
15817;BME280;8009;50.070;8.232;2022-10-26T07:51:21;100085.16;;;14.02;88.11
15817;BME280;8009;50.070;8.232;2022-10-26T07:53:50;100082.19;;;14.14;87.92
15817;BME280;8009;50.070;8.232;2022-10-26T07:56:18;100081.69;;;14.00;88.78
15817;BME280;8009;50.070;8.232;2022-10-26T07:58:47;100077.59;;;13.75;90.30
15817;BME280;8009;50.070;8.232;2022-10-26T08:01:15;100080.91;;;13.78;89.49
15817;BME280;8009;50.070;8.232;2022-10-26T08:03:46;100091.69;;;13.89;87.70
15817;BME280;8009;50.070;8.232;2022-10-26T08:06:14;100088.63;;;13.62;88.98
15817;BME280;8009;50.070;8.232;2022-10-26T08:08:43;100084.97;;;13.63;87.78
15817;BME280;8009;50.070;8.232;2022-10-26T08:11:11;100091.19;;;13.84;87.52
15817;BME280;8009;50.070;8.232;2022-10-26T08:13:40;100085.50;;;13.87;87.13
15817;BME280;8009;50.070;8.232;2022-10-26T08:16:09;100090.03;;;14.08;86.38
15817;BME280;8009;50.070;8.232;2022-10-26T08:18:37;100084.78;;;14.56;83.58
15817;BME280;8009;50.070;8.232;2022-10-26T08:21:10;100081.03;;;14.07;85.38
15817;BME280;8009;50.070;8.232;2022-10-26T08:23:40;100084.81;;;14.26;85.58
15817;BME280;8009;50.070;8.232;2022-10-26T08:26:09;100082.72;;;13.99;85.52
15817;BME280;8009;50.070;8.232;2022-10-26T08:28:38;100085.66;;;14.17;83.88
15817;BME280;8009;50.070;8.232;2022-10-26T08:31:07;100089.00;;;14.39;83.20
15817;BME280;8009;50.070;8.232;2022-10-26T08:33:35;100098.19;;;14.48;84.04
15817;BME280;8009;50.070;8.232;2022-10-26T08:36:04;100095.63;;;14.47;82.54
15817;BME280;8009;50.070;8.232;2022-10-26T08:38:35;100104.16;;;14.82;81.94
15817;BME280;8009;50.070;8.232;2022-10-26T08:41:06;100104.16;;;14.02;83.79
15817;BME280;8009;50.070;8.232;2022-10-26T08:43:39;100096.78;;;13.83;84.44
15817;BME280;8009;50.070;8.232;2022-10-26T08:46:16;100097.94;;;14.21;84.07
15817;BME280;8009;50.070;8.232;2022-10-26T08:48:49;100104.84;;;14.34;82.57
15817;BME280;8009;50.070;8.232;2022-10-26T08:51:23;100106.63;;;14.14;82.79
15817;BME280;8009;50.070;8.232;2022-10-26T08:54:02;100106.13;;;14.80;80.95
15817;BME280;8009;50.070;8.232;2022-10-26T08:56:36;100112.13;;;14.24;83.12
15817;BME280;8009;50.070;8.232;2022-10-26T08:59:12;100110.78;;;14.09;82.95
15817;BME280;8009;50.070;8.232;2022-10-26T09:01:42;100115.13;;;14.00;83.30
15817;BME280;8009;50.070;8.232;2022-10-26T09:04:11;100107.56;;;13.94;82.79
15817;BME280;8009;50.070;8.232;2022-10-26T09:06:47;100125.19;;;14.09;83.51
15817;BME280;8009;50.070;8.232;2022-10-26T09:09:25;100130.31;;;14.33;82.55
15817;BME280;8009;50.070;8.232;2022-10-26T09:12:02;100125.69;;;14.24;83.20
15817;BME280;8009;50.070;8.232;2022-10-26T09:14:38;100131.06;;;14.85;80.88
15817;BME280;8009;50.070;8.232;2022-10-26T09:17:21;100129.50;;;15.02;80.10
15817;BME280;8009;50.070;8.232;2022-10-26T09:20:13;100133.84;;;14.65;81.79
15817;BME280;8009;50.070;8.232;2022-10-26T09:22:55;100133.19;;;14.42;82.70
15817;BME280;8009;50.070;8.232;2022-10-26T09:25:33;100141.84;;;14.56;82.79
15817;BME280;8009;50.070;8.232;2022-10-26T09:28:11;100147.94;;;14.49;81.90
15817;BME280;8009;50.070;8.232;2022-10-26T09:30:43;100142.41;;;14.50;82.49
15817;BME280;8009;50.070;8.232;2022-10-26T09:33:15;100145.34;;;14.87;81.23
15817;BME280;8009;50.070;8.232;2022-10-26T09:35:46;100141.94;;;14.85;82.25
15817;BME280;8009;50.070;8.232;2022-10-26T09:38:23;100143.38;;;14.99;80.34
15817;BME280;8009;50.070;8.232;2022-10-26T09:40:59;100139.06;;;14.77;81.05
15817;BME280;8009;50.070;8.232;2022-10-26T09:43:35;100151.00;;;15.25;80.18
15817;BME280;8009;50.070;8.232;2022-10-26T09:46:08;100144.97;;;15.41;79.33
15817;BME280;8009;50.070;8.232;2022-10-26T09:48:42;100142.97;;;15.14;80.59
15817;BME280;8009;50.070;8.232;2022-10-26T09:51:14;100150.00;;;15.35;78.87
15817;BME280;8009;50.070;8.232;2022-10-26T09:53:42;100135.81;;;15.51;78.81
15817;BME280;8009;50.070;8.232;2022-10-26T09:56:14;100138.53;;;15.51;78.17
15817;BME280;8009;50.070;8.232;2022-10-26T09:58:48;100143.13;;;15.70;77.56
15817;BME280;8009;50.070;8.232;2022-10-26T10:01:26;100142.97;;;15.62;77.73
15817;BME280;8009;50.070;8.232;2022-10-26T10:04:16;100165.19;;;15.57;78.11
15817;BME280;8009;50.070;8.232;2022-10-26T10:06:46;100152.72;;;15.55;78.42
15817;BME280;8009;50.070;8.232;2022-10-26T10:09:16;100160.31;;;15.61;78.27
15817;BME280;8009;50.070;8.232;2022-10-26T10:11:51;100162.16;;;15.60;78.14
15817;BME280;8009;50.070;8.232;2022-10-26T10:14:23;100167.88;;;15.48;79.34
15817;BME280;8009;50.070;8.232;2022-10-26T10:16:54;100174.06;;;15.50;79.06
15817;BME280;8009;50.070;8.232;2022-10-26T10:19:25;100176.47;;;15.53;79.01
15817;BME280;8009;50.070;8.232;2022-10-26T10:21:55;100181.50;;;15.48;79.17
15817;BME280;8009;50.070;8.232;2022-10-26T10:24:27;100175.63;;;15.43;79.75
15817;BME280;8009;50.070;8.232;2022-10-26T10:27:01;100180.47;;;15.49;79.63
15817;BME280;8009;50.070;8.232;2022-10-26T10:29:31;100186.09;;;15.67;78.83
15817;BME280;8009;50.070;8.232;2022-10-26T10:32:01;100190.13;;;15.72;79.05
15817;BME280;8009;50.070;8.232;2022-10-26T10:34:30;100189.69;;;15.77;78.94
15817;BME280;8009;50.070;8.232;2022-10-26T10:37:00;100200.44;;;15.78;78.91
15817;BME280;8009;50.070;8.232;2022-10-26T10:39:34;100199.13;;;15.92;78.53
15817;BME280;8009;50.070;8.232;2022-10-26T10:42:17;100207.16;;;15.84;78.61
15817;BME280;8009;50.070;8.232;2022-10-26T10:44:50;100202.88;;;15.81;79.52
15817;BME280;8009;50.070;8.232;2022-10-26T10:47:22;100204.72;;;15.91;78.17
15817;BME280;8009;50.070;8.232;2022-10-26T10:49:54;100209.16;;;15.92;78.47
15817;BME280;8009;50.070;8.232;2022-10-26T10:52:28;100208.00;;;15.94;77.94
15817;BME280;8009;50.070;8.232;2022-10-26T10:55:07;100209.16;;;15.92;77.60
15817;BME280;8009;50.070;8.232;2022-10-26T10:57:51;100208.47;;;15.80;79.63
15817;BME280;8009;50.070;8.232;2022-10-26T11:00:24;100202.72;;;15.93;78.00
15817;BME280;8009;50.070;8.232;2022-10-26T11:03:04;100214.47;;;15.93;76.55
15817;BME280;8009;50.070;8.232;2022-10-26T11:05:57;100221.94;;;15.91;76.94
15817;BME280;8009;50.070;8.232;2022-10-26T11:08:29;100213.72;;;16.01;76.20
15817;BME280;8009;50.070;8.232;2022-10-26T11:11:03;100224.34;;;15.94;79.32
15817;BME280;8009;50.070;8.232;2022-10-26T11:13:38;100230.94;;;15.92;79.15
15817;BME280;8009;50.070;8.232;2022-10-26T11:16:12;100225.06;;;15.67;79.24
15817;BME280;8009;50.070;8.232;2022-10-26T11:18:45;100222.66;;;15.74;79.11
15817;BME280;8009;50.070;8.232;2022-10-26T11:21:22;100227.66;;;15.88;78.54
15817;BME280;8009;50.070;8.232;2022-10-26T11:23:59;100216.03;;;15.96;77.88
15817;BME280;8009;50.070;8.232;2022-10-26T11:26:39;100209.00;;;16.03;77.14
15817;BME280;8009;50.070;8.232;2022-10-26T11:29:20;100214.88;;;16.08;78.29
15817;BME280;8009;50.070;8.232;2022-10-26T11:31:53;100221.31;;;16.07;77.15
15817;BME280;8009;50.070;8.232;2022-10-26T11:34:30;100229.19;;;16.10;80.61
15817;BME280;8009;50.070;8.232;2022-10-26T11:37:05;100224.50;;;15.83;78.59
15817;BME280;8009;50.070;8.232;2022-10-26T11:39:43;100226.34;;;16.12;79.84
15817;BME280;8009;50.070;8.232;2022-10-26T11:42:19;100223.75;;;16.00;78.23
15817;BME280;8009;50.070;8.232;2022-10-26T11:44:56;100228.34;;;16.00;78.62
15817;BME280;8009;50.070;8.232;2022-10-26T11:47:31;100229.59;;;16.25;77.84
15817;BME280;8009;50.070;8.232;2022-10-26T11:50:07;100235.75;;;16.27;79.42
15817;BME280;8009;50.070;8.232;2022-10-26T11:52:43;100235.63;;;16.19;77.63
15817;BME280;8009;50.070;8.232;2022-10-26T11:55:12;100227.03;;;16.23;77.14
15817;BME280;8009;50.070;8.232;2022-10-26T11:57:41;100227.88;;;16.33;77.96
15817;BME280;8009;50.070;8.232;2022-10-26T12:00:17;100241.66;;;16.22;76.71
15817;BME280;8009;50.070;8.232;2022-10-26T12:02:49;100241.81;;;16.11;77.07
15817;BME280;8009;50.070;8.232;2022-10-26T12:05:21;100245.00;;;16.06;77.24
15817;BME280;8009;50.070;8.232;2022-10-26T12:07:52;100242.81;;;16.20;76.39
15817;BME280;8009;50.070;8.232;2022-10-26T12:10:25;100241.88;;;16.48;79.70
15817;BME280;8009;50.070;8.232;2022-10-26T12:13:00;100248.53;;;16.17;76.82
15817;BME280;8009;50.070;8.232;2022-10-26T12:15:39;100241.97;;;16.00;80.85
15817;BME280;8009;50.070;8.232;2022-10-26T12:18:13;100235.47;;;16.30;76.04
15817;BME280;8009;50.070;8.232;2022-10-26T12:20:56;100232.41;;;16.52;79.31
15817;BME280;8009;50.070;8.232;2022-10-26T12:23:28;100244.94;;;16.26;76.50
15817;BME280;8009;50.070;8.232;2022-10-26T12:35:36;100248.94;;;16.78;75.07
15817;BME280;8009;50.070;8.232;2022-10-26T12:41:21;100251.53;;;16.23;76.53
15817;BME280;8009;50.070;8.232;2022-10-26T12:43:54;100244.66;;;16.19;77.49
15817;BME280;8009;50.070;8.232;2022-10-26T12:46:41;100242.69;;;16.58;77.50
15817;BME280;8009;50.070;8.232;2022-10-26T12:52:48;100239.91;;;16.78;79.54
15817;BME280;8009;50.070;8.232;2022-10-26T12:55:49;100243.28;;;16.99;75.88
15817;BME280;8009;50.070;8.232;2022-10-26T12:58:34;100246.75;;;16.92;78.71
15817;BME280;8009;50.070;8.232;2022-10-26T13:04:13;100250.53;;;17.09;78.12
15817;BME280;8009;50.070;8.232;2022-10-26T13:06:58;100256.44;;;16.76;74.71
15817;BME280;8009;50.070;8.232;2022-10-26T13:09:38;100260.81;;;16.50;75.00
15817;BME280;8009;50.070;8.232;2022-10-26T13:12:11;100247.34;;;16.86;79.35
15817;BME280;8009;50.070;8.232;2022-10-26T13:14:55;100248.19;;;16.86;73.74
15817;BME280;8009;50.070;8.232;2022-10-26T13:17:26;100246.38;;;16.77;74.08
15817;BME280;8009;50.070;8.232;2022-10-26T13:19:56;100249.59;;;17.00;73.73
15817;BME280;8009;50.070;8.232;2022-10-26T13:22:26;100252.97;;;17.12;78.60
15817;BME280;8009;50.070;8.232;2022-10-26T13:24:59;100259.88;;;17.34;77.55
15817;BME280;8009;50.070;8.232;2022-10-26T13:27:56;100263.94;;;17.47;76.47
15817;BME280;8009;50.070;8.232;2022-10-26T13:30:43;100259.75;;;17.53;77.06
15817;BME280;8009;50.070;8.232;2022-10-26T13:33:20;100264.97;;;17.64;76.37
15817;BME280;8009;50.070;8.232;2022-10-26T13:35:52;100264.81;;;17.66;75.71
15817;BME280;8009;50.070;8.232;2022-10-26T13:38:24;100271.97;;;17.76;74.54
15817;BME280;8009;50.070;8.232;2022-10-26T13:41:04;100270.78;;;17.79;71.83
15817;BME280;8009;50.070;8.232;2022-10-26T13:43:35;100281.56;;;17.81;75.25
15817;BME280;8009;50.070;8.232;2022-10-26T13:46:04;100278.25;;;17.59;71.86
15817;BME280;8009;50.070;8.232;2022-10-26T13:48:37;100276.63;;;17.39;76.95
15817;BME280;8009;50.070;8.232;2022-10-26T13:51:13;100283.75;;;17.49;76.64
15817;BME280;8009;50.070;8.232;2022-10-26T13:53:50;100280.06;;;17.13;73.59
15817;BME280;8009;50.070;8.232;2022-10-26T13:56:27;100285.66;;;17.21;77.50